Time;durP1;ratioP1;P1;durP2;ratioP2;P2;SDS_P1;SDS_P2;PMS_P1;PMS_P2;Temp;Humidity;BMP_temperature;BMP_pressure;BME280_temperature;BME280_humidity;BME280_pressure;Samples;Min_cycle;Max_cycle;Signal;HPM_P1;HPM_P2
2021/12/30 00:01:24;;;;;;;43.57;20.67;;;5.60;99.90;;;;;;4878159;29;20413;-83
2021/12/30 00:03:50;;;;;;;51.22;23.77;;;5.50;99.90;;;;;;4870915;29;20400;-83
2021/12/30 00:06:18;;;;;;;59.55;28.05;;;5.50;99.90;;;;;;4875256;29;20398;-82
2021/12/30 00:08:45;;;;;;;86.93;29.85;;;5.50;99.90;;;;;;4894136;29;20424;-83
2021/12/30 00:11:12;;;;;;;43.38;23.63;;;5.60;99.90;;;;;;4894845;29;20409;-84
2021/12/30 00:13:39;;;;;;;46.50;25.20;;;5.60;99.90;;;;;;4880899;29;20412;-82
2021/12/30 00:16:05;;;;;;;43.35;24.30;;;5.60;99.90;;;;;;4895447;29;20405;-84
2021/12/30 00:18:31;;;;;;;46.10;25.55;;;5.60;99.90;;;;;;4889836;29;20986;-83
2021/12/30 00:20:57;;;;;;;47.33;25.58;;;5.60;99.90;;;;;;4894116;29;20484;-83
2021/12/30 00:23:23;;;;;;;45.25;25.15;;;5.60;99.90;;;;;;4876679;29;21143;-83
2021/12/30 00:25:49;;;;;;;53.75;27.20;;;5.60;99.90;;;;;;4894415;29;20397;-83
2021/12/30 00:28:22;;;;;;;65.38;30.77;;;5.60;99.90;;;;;;4877133;29;20428;-84
2021/12/30 00:30:50;;;;;;;47.72;26.83;;;5.60;99.90;;;;;;4876493;29;20448;-83
2021/12/30 00:33:17;;;;;;;52.35;28.20;;;5.60;99.90;;;;;;4893838;29;20401;-84
2021/12/30 00:35:43;;;;;;;66.85;31.20;;;5.60;99.90;;;;;;4895447;29;21320;-84
2021/12/30 00:38:09;;;;;;;52.67;28.67;;;5.60;99.90;;;;;;4888041;29;20461;-83
2021/12/30 00:40:37;;;;;;;68.57;32.00;;;5.60;99.90;;;;;;4885707;29;20394;-83
2021/12/30 00:43:04;;;;;;;60.67;30.50;;;5.60;99.90;;;;;;4894220;29;20382;-83
2021/12/30 00:45:31;;;;;;;68.95;29.65;;;5.70;99.90;;;;;;4877240;29;20861;-84
2021/12/30 00:47:57;;;;;;;58.70;29.85;;;5.70;99.90;;;;;;4875958;29;20477;-83
2021/12/30 00:50:24;;;;;;;45.28;27.05;;;5.70;99.90;;;;;;4891307;29;20477;-83
2021/12/30 00:52:53;;;;;;;50.90;27.23;;;5.70;99.90;;;;;;4875229;29;20421;-84
2021/12/30 00:55:20;;;;;;;70.13;30.55;;;5.70;99.90;;;;;;4876839;29;20476;-83
2021/12/30 00:57:45;;;;;;;61.58;30.42;;;5.70;99.90;;;;;;4859731;29;20943;-84
2021/12/30 01:00:15;;;;;;;54.45;30.42;;;5.70;99.90;;;;;;4888420;29;20408;-83
2021/12/30 01:02:41;;;;;;;66.47;33.55;;;5.70;99.90;;;;;;4873042;29;20409;-83
2021/12/30 01:05:09;;;;;;;47.78;29.40;;;5.70;99.90;;;;;;4874637;29;20477;-83
2021/12/30 01:07:35;;;;;;;70.15;35.25;;;5.70;99.90;;;;;;4876347;29;20397;-83
2021/12/30 01:10:05;;;;;;;82.25;34.35;;;5.80;99.90;;;;;;4893159;29;20750;-83
2021/12/30 01:12:32;;;;;;;52.28;31.20;;;5.80;99.90;;;;;;4874066;29;20757;-83
2021/12/30 01:14:57;;;;;;;57.65;32.33;;;5.80;99.90;;;;;;4892343;29;20918;-83
2021/12/30 01:17:43;;;;;;;89.13;32.90;;;5.90;99.90;;;;;;4876622;29;20421;-83
2021/12/30 01:20:13;;;;;;;46.22;29.25;;;5.90;99.90;;;;;;4877051;29;20401;-83
2021/12/30 01:22:38;;;;;;;51.55;31.35;;;5.90;99.90;;;;;;4874474;29;20390;-82
2021/12/30 01:25:11;;;;;;;52.53;30.60;;;5.90;99.90;;;;;;4893016;29;20424;-83
2021/12/30 01:27:39;;;;;;;59.50;31.60;;;6.00;99.90;;;;;;4876979;29;20416;-82
2021/12/30 01:30:08;;;;;;;54.05;32.40;;;6.00;99.90;;;;;;4876909;29;20461;-84
2021/12/30 01:32:34;;;;;;;62.15;34.70;;;6.00;99.90;;;;;;4878351;29;20421;-82
2021/12/30 01:35:00;;;;;;;63.07;35.50;;;6.00;99.90;;;;;;4876736;29;20440;-84
2021/12/30 01:37:26;;;;;;;65.97;36.47;;;5.90;99.90;;;;;;4876846;29;20420;-83
2021/12/30 01:39:53;;;;;;;57.90;35.03;;;5.90;99.90;;;;;;4879070;29;20398;-83
2021/12/30 01:42:19;;;;;;;67.97;36.65;;;6.00;99.90;;;;;;4876649;29;21139;-83
2021/12/30 01:44:45;;;;;;;62.50;35.05;;;6.00;99.90;;;;;;4893351;29;20484;-83
2021/12/30 01:47:11;;;;;;;81.50;39.92;;;6.00;99.90;;;;;;4880001;29;20939;-84
2021/12/30 01:49:36;;;;;;;68.15;37.97;;;6.00;99.90;;;;;;4881786;29;20393;-83
2021/12/30 01:52:03;;;;;;;59.42;36.50;;;6.00;99.90;;;;;;4897886;29;20899;-84
2021/12/30 01:54:29;;;;;;;83.30;41.88;;;6.00;99.90;;;;;;4884869;29;20405;-83
2021/12/30 01:57:03;;;;;;;77.57;41.05;;;6.00;99.90;;;;;;4880973;29;20835;-84
2021/12/30 01:59:30;;;;;;;74.05;42.30;;;6.00;99.90;;;;;;4881123;29;20398;-84
2021/12/30 02:01:58;;;;;;;85.97;44.28;;;6.00;99.90;;;;;;4897846;29;20887;-83
2021/12/30 02:04:26;;;;;;;84.80;45.53;;;6.00;99.90;;;;;;4881282;29;20733;-84
2021/12/30 02:06:53;;;;;;;94.55;47.15;;;6.00;99.90;;;;;;4880678;29;20524;-83
2021/12/30 02:09:20;;;;;;;97.15;47.75;;;6.00;99.90;;;;;;4896397;29;20393;-83
2021/12/30 02:11:47;;;;;;;92.43;46.38;;;5.90;99.90;;;;;;4897313;29;20500;-83
2021/12/30 02:14:13;;;;;;;97.15;47.60;;;6.00;99.90;;;;;;4880823;29;20419;-83
2021/12/30 02:16:39;;;;;;;91.10;46.38;;;6.00;99.90;;;;;;4880609;29;20907;-83
2021/12/30 02:19:05;;;;;;;102.10;48.70;;;6.00;99.90;;;;;;4897561;29;20472;-83
2021/12/30 02:21:31;;;;;;;97.97;46.92;;;6.00;99.90;;;;;;4880908;29;20401;-84
2021/12/30 02:23:58;;;;;;;106.38;48.92;;;6.10;99.90;;;;;;4879990;29;20807;-83
2021/12/30 02:26:24;;;;;;;101.32;47.83;;;6.00;99.90;;;;;;4880847;29;20412;-83
2021/12/30 02:28:49;;;;;;;109.15;48.88;;;6.10;99.90;;;;;;4880190;29;20752;-83
2021/12/30 02:31:18;;;;;;;109.75;49.38;;;6.10;99.90;;;;;;4897639;29;20397;-84
2021/12/30 02:33:45;;;;;;;117.90;50.88;;;6.20;99.90;;;;;;4897097;29;20429;-83
2021/12/30 02:36:13;;;;;;;102.20;47.37;;;6.20;99.90;;;;;;4880784;29;20385;-83
2021/12/30 02:38:45;;;;;;;90.67;45.13;;;6.10;99.90;;;;;;4879981;29;20531;-83
2021/12/30 02:41:14;;;;;;;114.03;50.00;;;6.20;99.90;;;;;;4880118;29;20409;-83
2021/12/30 02:43:40;;;;;;;122.25;51.67;;;6.30;99.90;;;;;;4880029;29;20416;-83
2021/12/30 02:46:06;;;;;;;99.57;46.88;;;6.20;99.90;;;;;;4880325;29;20402;-83
2021/12/30 02:48:34;;;;;;;125.17;50.07;;;6.20;99.90;;;;;;4880450;29;20457;-83
2021/12/30 02:51:03;;;;;;;104.68;47.05;;;6.20;99.90;;;;;;4880755;29;20425;-83
2021/12/30 02:53:31;;;;;;;103.25;46.13;;;6.30;99.90;;;;;;4879090;29;20500;-84
2021/12/30 02:55:58;;;;;;;113.75;48.63;;;6.30;99.90;;;;;;4897867;29;20401;-83
2021/12/30 02:58:25;;;;;;;108.35;46.92;;;6.30;99.90;;;;;;4896411;29;20421;-83
2021/12/30 03:01:05;;;;;;;112.47;46.83;;;6.30;99.90;;;;;;4887426;29;20539;-83
2021/12/30 03:03:31;;;;;;;102.82;45.58;;;6.40;99.90;;;;;;4885710;29;20463;-83
2021/12/30 03:06:03;;;;;;;98.28;44.30;;;6.40;99.90;;;;;;4896959;29;20800;-83
2021/12/30 03:08:29;;;;;;;77.40;41.35;;;6.40;99.90;;;;;;4879484;29;20416;-83
2021/12/30 03:10:55;;;;;;;84.07;40.80;;;6.50;99.90;;;;;;4896712;29;20410;-83
2021/12/30 03:13:30;;;;;;;97.47;42.53;;;6.50;99.90;;;;;;4896575;29;20385;-83
2021/12/30 03:15:57;;;;;;;90.85;42.40;;;6.60;99.90;;;;;;4880140;29;20482;-84
2021/12/30 03:18:22;;;;;;;82.57;41.05;;;6.70;99.90;;;;;;4897129;29;20926;-83
2021/12/30 03:20:48;;;;;;;61.65;35.85;;;6.60;99.90;;;;;;4897310;29;20385;-83
2021/12/30 03:23:16;;;;;;;63.90;35.83;;;6.70;99.90;;;;;;4897132;29;20388;-83
2021/12/30 03:25:41;;;;;;;69.75;36.38;;;6.70;99.90;;;;;;4896821;29;21573;-83
2021/12/30 03:28:07;;;;;;;64.13;34.50;;;6.80;99.90;;;;;;4897838;29;20417;-83
2021/12/30 03:30:32;;;;;;;65.15;34.60;;;6.70;99.90;;;;;;4879871;29;20390;-83
2021/12/30 03:32:58;;;;;;;59.93;33.63;;;6.80;99.90;;;;;;4897518;29;20400;-83
2021/12/30 03:35:24;;;;;;;67.00;33.73;;;6.80;99.90;;;;;;4897271;29;20397;-84
2021/12/30 03:37:49;;;;;;;56.40;31.50;;;6.80;99.90;;;;;;4895492;29;20421;-83
2021/12/30 03:40:16;;;;;;;51.72;30.65;;;6.90;99.90;;;;;;4879351;29;20492;-83
2021/12/30 03:42:43;;;;;;;58.40;31.08;;;6.90;99.90;;;;;;4896152;29;20408;-83
2021/12/30 03:45:12;;;;;;;57.42;32.15;;;7.00;99.90;;;;;;4879212;29;20390;-83
2021/12/30 03:47:42;;;;;;;59.42;32.63;;;7.00;99.90;;;;;;4880090;29;20393;-81
2021/12/30 03:50:13;;;;;;;67.18;34.88;;;7.00;99.90;;;;;;4881431;29;20416;-83
2021/12/30 03:52:38;;;;;;;78.00;35.83;;;7.10;99.90;;;;;;4878279;29;20803;-82
2021/12/30 03:55:04;;;;;;;85.07;36.70;;;7.10;99.90;;;;;;4878755;29;20488;-82
2021/12/30 03:57:30;;;;;;;80.53;37.60;;;7.10;99.90;;;;;;4878472;29;20753;-83
2021/12/30 03:59:56;;;;;;;103.32;41.35;;;7.10;99.90;;;;;;4879072;29;20422;-83
2021/12/30 04:02:21;;;;;;;106.65;41.25;;;7.20;99.90;;;;;;4895596;29;20394;-82
2021/12/30 04:04:47;;;;;;;96.90;40.27;;;7.10;99.90;;;;;;4895270;29;20510;-83
2021/12/30 04:07:13;;;;;;;119.87;42.57;;;7.10;99.90;;;;;;4895213;29;20405;-83
2021/12/30 04:09:38;;;;;;;98.43;40.53;;;7.10;99.90;;;;;;4878562;29;20451;-82
2021/12/30 04:12:04;;;;;;;124.43;43.88;;;7.10;99.90;;;;;;4878868;29;20453;-83
2021/12/30 04:14:30;;;;;;;120.57;42.33;;;7.10;99.90;;;;;;4877964;29;20422;-83
2021/12/30 04:16:56;;;;;;;116.85;43.75;;;7.10;99.90;;;;;;4878325;29;20950;-82
2021/12/30 04:19:22;;;;;;;119.13;43.50;;;7.00;99.90;;;;;;4895402;29;20400;-83
2021/12/30 04:21:53;;;;;;;131.75;44.50;;;7.00;99.90;;;;;;4895798;29;20402;-83
2021/12/30 04:24:19;;;;;;;117.32;42.35;;;7.10;99.90;;;;;;4895100;29;20503;-83
2021/12/30 04:26:45;;;;;;;119.50;42.17;;;7.10;99.90;;;;;;4878628;29;20450;-83
2021/12/30 04:29:10;;;;;;;121.35;43.75;;;7.10;99.90;;;;;;4895283;29;20393;-82
2021/12/30 04:31:36;;;;;;;134.37;45.80;;;7.10;99.90;;;;;;4876938;29;20395;-83
2021/12/30 04:34:02;;;;;;;107.10;42.70;;;7.20;99.90;;;;;;4882389;29;20504;-83
2021/12/30 04:36:27;;;;;;;114.13;43.58;;;7.20;99.90;;;;;;4878060;29;20425;-83
2021/12/30 04:38:53;;;;;;;99.72;42.58;;;7.30;99.90;;;;;;4878835;29;20421;-83
2021/12/30 04:41:19;;;;;;;112.03;43.33;;;7.30;99.90;;;;;;4878511;29;20433;-83
2021/12/30 04:43:44;;;;;;;116.72;44.42;;;7.30;99.90;;;;;;4878004;29;20394;-83
2021/12/30 04:46:10;;;;;;;117.65;44.60;;;7.40;99.90;;;;;;4894712;29;20901;-83
2021/12/30 04:48:35;;;;;;;119.63;46.63;;;7.40;99.90;;;;;;4893577;29;20418;-83
2021/12/30 04:51:01;;;;;;;117.70;46.90;;;7.40;99.90;;;;;;4878795;29;20975;-83
2021/12/30 04:53:27;;;;;;;110.85;44.80;;;7.40;99.90;;;;;;4895513;29;20921;-83
2021/12/30 04:55:53;;;;;;;119.03;48.63;;;7.50;99.90;;;;;;4886948;29;20389;-83
2021/12/30 04:58:19;;;;;;;105.35;46.85;;;7.50;99.90;;;;;;4897808;29;20500;-84
2021/12/30 05:00:45;;;;;;;124.53;49.50;;;7.60;99.90;;;;;;4878618;29;20413;-83
2021/12/30 05:03:13;;;;;;;116.90;48.38;;;7.70;99.90;;;;;;4878596;29;20385;-83
2021/12/30 05:05:45;;;;;;;115.35;47.67;;;7.70;99.90;;;;;;4877741;29;20402;-83
2021/12/30 05:08:15;;;;;;;117.68;48.28;;;7.70;99.90;;;;;;4878262;29;20945;-83
2021/12/30 05:10:41;;;;;;;116.05;47.70;;;7.80;99.90;;;;;;4873937;29;20397;-83
2021/12/30 05:13:09;;;;;;;100.43;45.90;;;7.80;99.90;;;;;;4877940;29;20398;-83
2021/12/30 05:15:36;;;;;;;115.22;48.03;;;7.80;99.90;;;;;;4878937;29;20425;-83
2021/12/30 05:18:02;;;;;;;116.95;47.80;;;7.80;99.90;;;;;;4894470;29;20417;-82
2021/12/30 05:20:28;;;;;;;108.80;47.75;;;7.80;99.90;;;;;;4877822;29;20400;-84
2021/12/30 05:22:54;;;;;;;105.87;47.83;;;7.80;99.90;;;;;;4896570;29;20488;-83
2021/12/30 05:25:20;;;;;;;113.40;47.77;;;7.80;99.90;;;;;;4877441;29;20476;-82
2021/12/30 05:27:48;;;;;;;92.28;45.50;;;7.80;99.90;;;;;;4894448;29;20499;-83
2021/12/30 05:30:15;;;;;;;109.47;46.45;;;7.80;99.90;;;;;;4877274;29;20484;-83
2021/12/30 05:32:41;;;;;;;108.45;45.97;;;7.80;99.90;;;;;;4894130;29;20409;-82
2021/12/30 05:35:09;;;;;;;93.95;44.08;;;7.80;99.90;;;;;;4877131;29;20421;-82
2021/12/30 05:37:35;;;;;;;98.33;44.53;;;7.80;99.90;;;;;;4876855;29;20425;-83
2021/12/30 05:40:01;;;;;;;100.78;45.28;;;7.90;99.90;;;;;;4893935;29;20397;-83
2021/12/30 05:42:26;;;;;;;100.57;44.83;;;7.90;99.90;;;;;;4893590;29;20416;-83
2021/12/30 05:44:53;;;;;;;88.50;42.27;;;8.00;99.90;;;;;;4894353;29;20899;-82
2021/12/30 05:47:20;;;;;;;101.45;45.47;;;8.00;99.90;;;;;;4877709;29;20532;-83
2021/12/30 05:49:45;;;;;;;93.38;43.10;;;8.00;99.90;;;;;;4877086;29;20397;-83
2021/12/30 05:52:12;;;;;;;101.35;44.97;;;8.00;99.90;;;;;;4876830;29;20788;-83
2021/12/30 05:54:40;;;;;;;91.88;44.33;;;7.90;99.90;;;;;;4877424;29;20767;-83
2021/12/30 05:57:05;;;;;;;94.53;44.53;;;7.90;99.90;;;;;;4877213;29;20465;-82
2021/12/30 05:59:31;;;;;;;112.30;47.80;;;8.00;99.90;;;;;;4877267;29;20477;-84
2021/12/30 06:01:57;;;;;;;98.43;45.63;;;8.00;99.90;;;;;;4893618;29;20489;-82
2021/12/30 06:04:22;;;;;;;100.00;46.07;;;7.90;99.90;;;;;;4894258;29;20749;-83
2021/12/30 06:06:48;;;;;;;101.80;46.78;;;7.80;99.90;;;;;;4876511;29;20417;-82
2021/12/30 06:09:14;;;;;;;113.07;48.47;;;7.80;99.90;;;;;;4894035;29;20458;-82
2021/12/30 06:11:39;;;;;;;97.40;46.73;;;7.70;99.90;;;;;;4893934;29;20401;-82
2021/12/30 06:14:05;;;;;;;114.23;47.57;;;7.70;99.90;;;;;;4877079;29;20389;-82
2021/12/30 06:16:33;;;;;;;103.20;45.92;;;7.60;99.90;;;;;;4877078;29;20393;-82
2021/12/30 06:18:59;;;;;;;104.10;47.55;;;7.50;99.90;;;;;;4893556;29;20864;-81
2021/12/30 06:21:25;;;;;;;107.85;47.00;;;7.50;99.90;;;;;;4893936;29;20393;-83
2021/12/30 06:23:51;;;;;;;96.63;44.42;;;7.40;99.90;;;;;;4894152;29;20885;-82
2021/12/30 06:26:17;;;;;;;98.03;42.90;;;7.40;99.90;;;;;;4893709;29;20397;-82
2021/12/30 06:28:42;;;;;;;119.53;46.63;;;7.40;99.90;;;;;;4877394;29;20404;-83
2021/12/30 06:31:08;;;;;;;84.50;40.40;;;7.30;99.90;;;;;;4876810;29;20425;-82
2021/12/30 06:33:34;;;;;;;93.40;41.70;;;7.30;99.90;;;;;;4897434;29;20481;-82
2021/12/30 06:35:59;;;;;;;112.47;42.73;;;7.20;99.90;;;;;;4897340;29;20959;-82
2021/12/30 06:38:25;;;;;;;92.07;41.28;;;7.20;99.90;;;;;;4898337;29;20438;-81
2021/12/30 06:40:51;;;;;;;96.03;42.05;;;7.20;99.90;;;;;;4883689;29;20461;-82
2021/12/30 06:43:17;;;;;;;93.97;40.53;;;7.10;99.90;;;;;;4898747;29;20393;-82
2021/12/30 06:45:44;;;;;;;81.63;38.53;;;7.10;99.90;;;;;;4897745;29;20394;-83
2021/12/30 06:48:14;;;;;;;116.30;44.70;;;7.10;99.90;;;;;;4880993;29;20821;-83
2021/12/30 06:50:40;;;;;;;101.47;42.88;;;7.10;99.90;;;;;;4880797;29;20492;-82
2021/12/30 06:53:05;;;;;;;82.85;39.15;;;7.00;99.90;;;;;;4887419;29;20412;-81
2021/12/30 06:55:31;;;;;;;124.03;45.60;;;7.00;99.90;;;;;;4888316;29;20405;-82
2021/12/30 06:57:57;;;;;;;101.77;42.50;;;7.00;99.90;;;;;;4897335;29;20904;-83
2021/12/30 07:00:22;;;;;;;94.68;42.85;;;6.90;99.90;;;;;;4897019;29;20461;-83
2021/12/30 07:02:48;;;;;;;104.32;43.33;;;6.90;99.90;;;;;;4896915;29;20397;-84
2021/12/30 07:05:14;;;;;;;106.07;44.90;;;6.90;99.90;;;;;;4879957;29;20749;-82
2021/12/30 07:07:40;;;;;;;90.23;41.00;;;6.90;99.90;;;;;;4882295;29;20389;-82
2021/12/30 07:10:06;;;;;;;85.20;39.55;;;7.00;99.90;;;;;;4897793;29;20389;-82
2021/12/30 07:12:32;;;;;;;92.80;40.85;;;7.10;99.90;;;;;;4897143;29;20401;-83
2021/12/30 07:14:59;;;;;;;91.63;40.00;;;7.20;99.90;;;;;;4900214;29;20396;-83
2021/12/30 07:17:27;;;;;;;91.45;39.58;;;7.30;99.90;;;;;;4879459;29;20417;-83
2021/12/30 07:19:55;;;;;;;91.88;40.90;;;7.30;99.90;;;;;;4896355;29;20401;-82
2021/12/30 07:22:21;;;;;;;81.65;37.97;;;7.50;99.90;;;;;;4879330;29;20468;-83
2021/12/30 07:24:46;;;;;;;88.03;39.57;;;7.50;99.90;;;;;;4896223;29;20504;-83
2021/12/30 07:27:12;;;;;;;96.70;37.83;;;7.40;99.90;;;;;;4895876;29;20421;-83
2021/12/30 07:29:38;;;;;;;76.60;35.37;;;7.40;99.90;;;;;;4896173;29;20508;-82
2021/12/30 07:32:04;;;;;;;94.83;37.67;;;7.40;99.90;;;;;;4896587;29;20908;-83
2021/12/30 07:34:31;;;;;;;84.18;35.33;;;7.40;99.90;;;;;;4878961;29;20385;-83
2021/12/30 07:36:57;;;;;;;84.85;35.00;;;7.30;99.90;;;;;;4879237;29;20393;-83
2021/12/30 07:39:22;;;;;;;80.87;33.93;;;7.30;99.90;;;;;;4879069;29;20914;-82
2021/12/30 07:41:48;;;;;;;88.13;36.43;;;7.30;99.90;;;;;;4895988;29;20408;-83
2021/12/30 07:44:15;;;;;;;82.93;34.42;;;7.30;99.90;;;;;;4877724;29;20397;-82
2021/12/30 07:46:41;;;;;;;60.17;31.02;;;7.30;99.90;;;;;;4879201;29;20456;-83
2021/12/30 07:49:06;;;;;;;122.30;34.85;;;7.30;99.90;;;;;;4896224;29;20389;-82
2021/12/30 07:51:32;;;;;;;90.87;34.03;;;7.30;99.90;;;;;;4879093;29;20417;-83
2021/12/30 07:53:58;;;;;;;84.43;34.87;;;7.30;99.90;;;;;;4878561;29;20828;-82
2021/12/30 07:56:23;;;;;;;71.40;32.15;;;7.40;99.90;;;;;;4895841;29;20480;-83
2021/12/30 07:58:49;;;;;;;69.95;31.55;;;7.40;99.90;;;;;;4878608;29;20413;-83
2021/12/30 08:01:15;;;;;;;72.93;32.50;;;7.40;99.90;;;;;;4878759;29;20385;-83
2021/12/30 08:03:41;;;;;;;72.80;31.43;;;7.50;99.90;;;;;;4894780;29;20413;-83
2021/12/30 08:06:07;;;;;;;76.97;31.40;;;7.60;99.90;;;;;;4895886;29;20896;-83
2021/12/30 08:08:33;;;;;;;71.13;31.23;;;7.60;99.90;;;;;;4895778;29;21057;-82
2021/12/30 08:10:58;;;;;;;77.00;32.07;;;7.70;99.90;;;;;;4895438;29;20424;-83
2021/12/30 08:13:24;;;;;;;86.87;33.50;;;7.70;99.90;;;;;;4896198;29;20408;-81
2021/12/30 08:15:51;;;;;;;57.83;28.10;;;7.70;99.90;;;;;;4895944;29;20488;-82
2021/12/30 08:18:17;;;;;;;58.13;29.98;;;7.70;99.90;;;;;;4878581;29;20425;-83
2021/12/30 08:20:42;;;;;;;77.70;32.70;;;7.80;99.90;;;;;;4895838;29;20393;-83
2021/12/30 08:23:08;;;;;;;82.27;32.20;;;7.80;99.90;;;;;;4895578;29;20381;-82
2021/12/30 08:25:34;;;;;;;62.00;29.88;;;7.80;99.90;;;;;;4895042;29;20389;-83
2021/12/30 08:27:59;;;;;;;75.95;31.33;;;7.90;99.90;;;;;;4878419;29;20915;-82
2021/12/30 08:30:25;;;;;;;86.13;31.27;;;8.00;99.90;;;;;;4877915;29;20443;-84
2021/12/30 08:32:51;;;;;;;86.95;34.47;;;8.00;99.90;;;;;;4878768;29;20386;-83
2021/12/30 08:35:20;;;;;;;75.50;33.57;;;8.10;99.90;;;;;;4895225;29;20385;-83
2021/12/30 08:37:47;;;;;;;96.55;37.85;;;8.00;99.90;;;;;;4878205;29;20413;-83
2021/12/30 08:40:15;;;;;;;98.07;36.72;;;8.00;99.90;;;;;;4878326;29;20409;-83
2021/12/30 08:42:41;;;;;;;88.35;37.35;;;8.00;99.90;;;;;;4877903;29;20472;-83
2021/12/30 08:45:07;;;;;;;92.57;37.60;;;8.00;99.90;;;;;;4894792;29;20458;-84
2021/12/30 08:47:34;;;;;;;105.82;40.45;;;8.10;99.90;;;;;;4895400;29;20385;-82
2021/12/30 08:50:00;;;;;;;90.18;39.22;;;8.20;99.90;;;;;;4878554;29;20425;-82
2021/12/30 08:52:28;;;;;;;106.03;40.38;;;8.20;99.90;;;;;;4886798;29;20753;-82
2021/12/30 08:54:56;;;;;;;96.93;40.90;;;8.20;99.90;;;;;;4899213;29;20400;-84
2021/12/30 08:57:22;;;;;;;92.55;39.08;;;8.20;99.90;;;;;;4879713;29;20425;-81
2021/12/30 08:59:48;;;;;;;79.07;36.97;;;8.30;99.90;;;;;;4914905;29;20383;-83
2021/12/30 09:02:14;;;;;;;76.18;36.72;;;8.60;99.90;;;;;;4897295;29;20962;-81
2021/12/30 09:04:42;;;;;;;84.30;36.75;;;8.60;99.90;;;;;;4912332;29;20396;-82
2021/12/30 09:07:08;;;;;;;80.57;34.28;;;8.70;99.90;;;;;;4914019;29;20391;-82
2021/12/30 09:09:34;;;;;;;79.60;34.97;;;8.70;99.90;;;;;;4895043;29;20394;-83
2021/12/30 09:12:00;;;;;;;76.97;34.80;;;8.80;99.90;;;;;;4894583;29;20449;-82
2021/12/30 09:14:26;;;;;;;77.83;35.60;;;8.80;99.90;;;;;;4894633;29;20405;-82
2021/12/30 09:16:51;;;;;;;76.47;34.45;;;8.80;99.90;;;;;;4877241;29;20818;-83
2021/12/30 09:19:17;;;;;;;84.32;34.38;;;8.90;99.90;;;;;;4877505;29;20412;-82
2021/12/30 09:21:43;;;;;;;76.05;34.38;;;8.90;99.90;;;;;;4877659;29;20753;-82
2021/12/30 09:24:10;;;;;;;51.80;30.00;;;9.00;99.90;;;;;;4893976;29;20397;-82
2021/12/30 09:26:36;;;;;;;73.03;33.03;;;9.00;99.90;;;;;;4875922;29;20760;-82
2021/12/30 09:29:04;;;;;;;70.00;31.70;;;9.10;99.90;;;;;;4894319;29;20479;-82
2021/12/30 09:31:30;;;;;;;61.23;30.87;;;9.10;99.90;;;;;;4894237;29;20408;-82
2021/12/30 09:33:57;;;;;;;63.23;31.07;;;9.20;99.90;;;;;;4891743;29;20405;-82
2021/12/30 09:36:23;;;;;;;48.92;28.80;;;9.10;99.90;;;;;;4877592;29;20405;-82
2021/12/30 09:38:51;;;;;;;60.83;30.73;;;9.20;99.90;;;;;;4883056;29;20413;-84
2021/12/30 09:41:17;;;;;;;61.42;30.20;;;9.20;99.90;;;;;;4880602;29;20417;-82
2021/12/30 09:43:42;;;;;;;62.65;28.80;;;9.20;99.90;;;;;;4893905;29;20377;-83
2021/12/30 09:46:08;;;;;;;45.10;26.50;;;9.10;99.90;;;;;;4892949;29;20943;-82
2021/12/30 09:48:34;;;;;;;56.03;29.07;;;9.10;99.90;;;;;;4874064;29;20854;-82
2021/12/30 09:51:00;;;;;;;54.88;28.88;;;9.10;99.90;;;;;;4876468;29;21826;-83
2021/12/30 09:53:26;;;;;;;48.13;26.75;;;9.20;99.90;;;;;;4892590;29;20935;-83
2021/12/30 09:55:55;;;;;;;41.75;24.52;;;9.20;99.90;;;;;;4876074;29;20397;-83
2021/12/30 09:58:21;;;;;;;46.47;25.52;;;9.30;99.90;;;;;;4845853;29;20431;-84
2021/12/30 10:00:47;;;;;;;54.47;25.63;;;9.40;99.90;;;;;;4890216;29;20408;-83
2021/12/30 10:03:13;;;;;;;56.63;26.85;;;9.40;99.90;;;;;;4874379;29;20428;-83
2021/12/30 10:05:41;;;;;;;42.22;25.30;;;9.50;99.90;;;;;;4892083;29;20385;-82
2021/12/30 10:08:19;;;;;;;54.33;26.98;;;9.50;99.90;;;;;;4862702;29;20417;-82
2021/12/30 10:10:52;;;;;;;47.30;25.75;;;9.50;99.90;;;;;;4861326;29;20395;-82
2021/12/30 10:13:26;;;;;;;47.30;26.23;;;9.50;99.90;;;;;;4877539;29;20407;-82
2021/12/30 10:16:01;;;;;;;48.70;24.80;;;9.40;99.90;;;;;;4874804;29;20809;-83
2021/12/30 10:18:41;;;;;;;51.40;24.50;;;9.50;99.90;;;;;;4880543;29;20425;-83
2021/12/30 10:21:16;;;;;;;46.72;23.67;;;9.60;99.90;;;;;;4896898;29;20373;-83
2021/12/30 10:23:46;;;;;;;55.30;27.10;;;9.50;99.90;;;;;;4882118;29;20452;-83
2021/12/30 10:26:12;;;;;;;42.83;23.83;;;9.50;99.90;;;;;;4879547;29;20412;-83
2021/12/30 10:28:40;;;;;;;49.38;26.02;;;9.40;99.90;;;;;;4896762;29;20397;-82
2021/12/30 10:31:11;;;;;;;52.17;27.05;;;9.40;99.90;;;;;;4896162;29;20413;-83
2021/12/30 10:33:53;;;;;;;49.90;26.33;;;9.30;99.90;;;;;;4895395;29;20534;-83
2021/12/30 10:36:27;;;;;;;52.00;26.35;;;9.30;99.90;;;;;;4879271;29;20401;-84
2021/12/30 10:38:55;;;;;;;49.55;24.83;;;9.30;99.90;;;;;;4868808;29;20460;-85
2021/12/30 10:41:23;;;;;;;42.38;23.63;;;9.30;99.90;;;;;;4874069;29;21178;-84
2021/12/30 10:43:53;;;;;;;47.03;23.60;;;9.40;99.90;;;;;;4894115;29;20405;-83
2021/12/30 10:46:27;;;;;;;44.70;23.05;;;9.40;99.90;;;;;;4900002;29;20432;-85
2021/12/30 10:49:05;;;;;;;40.63;21.37;;;9.60;99.90;;;;;;4892427;29;20459;-85
2021/12/30 10:51:38;;;;;;;42.40;22.95;;;9.60;99.90;;;;;;4903080;29;20448;-84
2021/12/30 10:54:23;;;;;;;46.30;22.92;;;9.60;99.90;;;;;;4876102;29;20403;-83
2021/12/30 10:56:59;;;;;;;41.63;22.33;;;9.60;99.90;;;;;;4871639;29;20488;-85
2021/12/30 10:59:32;;;;;;;40.93;21.07;;;9.70;99.90;;;;;;4897043;29;20851;-84
2021/12/30 11:02:00;;;;;;;41.83;22.40;;;9.80;99.90;;;;;;4885164;29;20404;-83
2021/12/30 11:04:33;;;;;;;45.20;22.23;;;9.80;99.90;;;;;;4886228;29;20413;-83
2021/12/30 11:06:59;;;;;;;40.95;22.15;;;9.90;99.90;;;;;;4898986;29;20453;-84
2021/12/30 11:09:25;;;;;;;44.28;21.55;;;9.90;99.90;;;;;;4904653;29;20410;-85
2021/12/30 11:12:04;;;;;;;37.17;20.30;;;9.90;99.90;;;;;;4896818;29;20393;-85
2021/12/30 11:14:34;;;;;;;44.03;21.25;;;10.00;99.90;;;;;;4881089;29;20476;-85
2021/12/30 11:17:13;;;;;;;49.78;22.05;;;10.00;99.90;;;;;;4888094;29;20416;-85
2021/12/30 11:19:54;;;;;;;37.85;20.02;;;9.90;99.90;;;;;;4875894;29;20428;-85
2021/12/30 11:22:22;;;;;;;41.87;20.47;;;9.90;99.90;;;;;;4880470;29;20401;-84
2021/12/30 11:24:50;;;;;;;39.75;20.50;;;9.80;99.90;;;;;;4879565;29;20397;-85
2021/12/30 11:27:17;;;;;;;43.75;21.00;;;9.80;99.90;;;;;;4896570;29;20879;-84
2021/12/30 11:29:46;;;;;;;40.00;20.88;;;9.80;99.90;;;;;;4881145;29;20389;-83
2021/12/30 11:32:16;;;;;;;39.45;21.20;;;9.80;99.90;;;;;;4897215;29;20767;-83
2021/12/30 11:34:42;;;;;;;39.40;20.07;;;9.80;99.90;;;;;;4896350;29;20521;-84
2021/12/30 11:37:08;;;;;;;43.97;21.10;;;9.70;99.90;;;;;;4879531;29;20510;-85
2021/12/30 11:39:35;;;;;;;41.42;21.63;;;9.60;99.90;;;;;;4880050;29;20401;-83
2021/12/30 11:42:15;;;;;;;44.92;23.38;;;9.60;99.90;;;;;;4897329;29;20405;-84
2021/12/30 11:44:48;;;;;;;55.00;27.73;;;9.60;99.90;;;;;;4894407;29;20444;-84
2021/12/30 11:47:31;;;;;;;58.07;27.77;;;9.50;99.90;;;;;;4895177;29;20425;-85
2021/12/30 11:49:57;;;;;;;50.38;26.70;;;9.40;99.90;;;;;;4879770;29;20440;-84
2021/12/30 11:52:51;;;;;;;50.53;28.42;;;9.40;99.90;;;;;;4895415;29;20480;-84
2021/12/30 11:55:49;;;;;;;52.43;26.63;;;9.40;99.90;;;;;;4888526;29;20565;-84
2021/12/30 11:58:40;;;;;;;54.25;27.88;;;9.40;99.90;;;;;;4899364;29;20421;-85
2021/12/30 12:01:27;;;;;;;49.45;25.10;;;9.30;99.90;;;;;;4882161;29;20448;-83
2021/12/30 12:03:53;;;;;;;58.03;25.50;;;9.30;99.90;;;;;;4883229;29;20977;-82
2021/12/30 12:08:55;;;;;;;48.90;24.42;;;9.40;99.90;;;;;;4891686;29;20758;-82
2021/12/30 12:11:47;;;;;;;49.92;25.05;;;9.40;99.90;;;;;;4892580;29;20433;-84
2021/12/30 12:14:16;;;;;;;55.58;26.42;;;9.40;99.90;;;;;;4887080;29;20761;-84
2021/12/30 12:16:44;;;;;;;54.15;26.40;;;9.30;99.90;;;;;;4877682;29;20401;-83
2021/12/30 12:19:11;;;;;;;51.78;26.17;;;9.40;99.90;;;;;;4877458;29;20500;-84
2021/12/30 12:21:45;;;;;;;57.72;25.63;;;9.50;99.90;;;;;;4893579;29;20400;-84
2021/12/30 12:24:31;;;;;;;48.42;25.70;;;9.50;99.90;;;;;;4894006;29;21058;-84
2021/12/30 12:27:07;;;;;;;53.83;25.98;;;9.40;99.90;;;;;;4891767;29;20428;-84
2021/12/30 12:29:38;;;;;;;53.92;26.30;;;9.40;99.90;;;;;;4893524;29;20433;-84
2021/12/30 12:32:11;;;;;;;51.70;24.35;;;9.40;99.90;;;;;;4893487;29;20665;-85
2021/12/30 12:34:38;;;;;;;53.42;27.33;;;9.40;99.90;;;;;;4893687;29;20389;-83
2021/12/30 12:37:25;;;;;;;58.22;26.90;;;9.40;99.90;;;;;;4893360;29;20458;-84
2021/12/30 12:40:00;;;;;;;55.25;26.92;;;9.40;99.90;;;;;;4880154;29;20420;-84